Time;durP1;ratioP1;P1;durP2;ratioP2;P2;SDS_P1;SDS_P2;PMS_P1;PMS_P2;Temp;Humidity;BMP_temperature;BMP_pressure;BME280_temperature;BME280_humidity;BME280_pressure;Samples;Min_cycle;Max_cycle;Signal;HPM_P1;HPM_P2
2022/03/11 00:01:12;;;;;;;22.33;13.82;;;;;;;13.45;68.31;99741.09;5054993;28;20021;-84
2022/03/11 00:03:37;;;;;;;19.60;13.55;;;;;;;13.46;68.27;99734.84;5054376;28;20521;-85
2022/03/11 00:06:03;;;;;;;19.70;13.73;;;;;;;13.53;68.40;99721.13;5054476;28;20471;-86
2022/03/11 00:08:28;;;;;;;17.35;13.68;;;;;;;13.60;67.73;99720.38;5054672;28;20040;-85
2022/03/11 00:10:53;;;;;;;18.45;13.70;;;;;;;13.58;67.69;99719.69;5054505;28;20044;-85
2022/03/11 00:13:19;;;;;;;20.35;14.00;;;;;;;13.61;67.90;99715.97;5054427;28;20021;-84
2022/03/11 00:15:44;;;;;;;19.88;14.02;;;;;;;13.65;67.77;99718.16;5054755;28;20116;-84
2022/03/11 00:18:10;;;;;;;21.08;14.63;;;;;;;13.61;67.90;99708.06;5054818;28;20147;-85
2022/03/11 00:20:35;;;;;;;21.48;13.85;;;;;;;13.31;68.88;99709.03;5054243;28;20087;-85
2022/03/11 00:23:01;;;;;;;23.48;14.15;;;;;;;13.52;68.20;99714.16;5054510;28;20108;-85
2022/03/11 00:25:26;;;;;;;28.42;14.93;;;;;;;13.79;67.83;99703.72;5054636;28;20057;-85
2022/03/11 00:27:52;;;;;;;18.00;13.60;;;;;;;13.93;67.08;99697.16;5054478;28;20028;-85
2022/03/11 00:30:18;;;;;;;22.08;14.40;;;;;;;13.94;67.35;99698.81;5054240;28;20521;-85
2022/03/11 00:32:45;;;;;;;18.65;13.20;;;;;;;13.89;67.30;99693.97;5054185;28;20061;-85
2022/03/11 00:35:12;;;;;;;26.15;14.77;;;;;;;13.89;66.97;99685.22;5053473;28;20033;-85
2022/03/11 00:37:40;;;;;;;17.83;12.48;;;;;;;13.82;67.55;99674.41;5053601;28;20033;-85
2022/03/11 00:40:07;;;;;;;35.05;14.02;;;;;;;13.87;67.09;99668.69;5052238;28;20434;-85
2022/03/11 00:42:33;;;;;;;17.60;12.82;;;;;;;13.77;67.77;99665.25;5054194;28;20429;-86
2022/03/11 00:44:59;;;;;;;21.42;13.60;;;;;;;13.86;67.44;99649.41;5054277;28;20068;-86
2022/03/11 00:47:26;;;;;;;20.35;13.10;;;;;;;13.82;67.43;99653.31;5053868;28;20551;-85
2022/03/11 00:49:52;;;;;;;17.88;13.32;;;;;;;13.78;67.87;99636.06;5053569;28;20031;-85
2022/03/11 00:52:17;;;;;;;16.10;12.27;;;;;;;13.66;68.21;99639.84;5053917;28;20029;-85
2022/03/11 00:54:43;;;;;;;21.08;12.43;;;;;;;13.78;67.67;99629.97;5053672;28;20033;-85
2022/03/11 00:57:08;;;;;;;19.98;11.98;;;;;;;13.74;67.70;99626.78;5053267;28;20029;-85
2022/03/11 00:59:33;;;;;;;16.13;12.25;;;;;;;13.93;66.97;99611.88;5053244;28;20029;-85
2022/03/11 01:01:59;;;;;;;17.25;11.57;;;;;;;13.91;67.26;99613.81;5053694;28;20029;-85
2022/03/11 01:04:24;;;;;;;18.42;12.00;;;;;;;13.81;67.28;99617.31;5052592;28;20036;-85
2022/03/11 01:06:50;;;;;;;15.52;11.63;;;;;;;13.69;67.71;99616.66;5053148;28;20040;-85
2022/03/11 01:09:15;;;;;;;15.52;11.38;;;;;;;13.85;67.49;99608.13;5053393;28;20096;-85
2022/03/11 01:11:41;;;;;;;16.33;11.35;;;;;;;13.92;67.15;99604.91;5053116;28;20028;-85
2022/03/11 01:14:07;;;;;;;16.05;10.45;;;;;;;13.98;66.65;99601.69;5053039;28;20025;-85
2022/03/11 01:16:32;;;;;;;15.05;11.13;;;;;;;13.91;66.92;99592.72;5053138;28;20025;-85
2022/03/11 01:18:58;;;;;;;15.30;10.93;;;;;;;13.89;66.71;99593.69;5052663;28;20065;-85
2022/03/11 01:21:23;;;;;;;14.30;10.30;;;;;;;13.86;66.78;99580.78;5053116;28;20376;-85
2022/03/11 01:23:48;;;;;;;14.43;9.05;;;;;;;13.74;67.26;99575.81;5053250;28;20490;-85
2022/03/11 01:26:15;;;;;;;14.60;10.40;;;;;;;13.71;67.21;99571.69;5052096;28;20024;-85
2022/03/11 01:28:42;;;;;;;14.88;9.88;;;;;;;13.75;67.04;99559.88;5052667;28;20057;-85
2022/03/11 01:31:11;;;;;;;12.20;8.48;;;;;;;13.79;67.19;99563.88;5053199;28;20026;-85
2022/03/11 01:33:38;;;;;;;12.30;8.90;;;;;;;13.75;67.06;99557.22;5052668;28;20104;-84
2022/03/11 01:36:04;;;;;;;14.55;9.10;;;;;;;13.82;66.50;99563.59;5052798;28;20033;-85
2022/03/11 01:38:29;;;;;;;13.10;8.70;;;;;;;13.77;66.99;99550.00;5052840;28;20025;-85
2022/03/11 01:40:54;;;;;;;14.02;9.35;;;;;;;13.99;65.85;99542.66;5051877;28;20033;-85
2022/03/11 01:43:20;;;;;;;12.82;7.93;;;;;;;13.72;67.11;99532.94;5052843;28;20021;-85
2022/03/11 01:45:45;;;;;;;13.35;8.65;;;;;;;13.87;66.51;99540.22;5052865;28;20104;-85
2022/03/11 01:48:11;;;;;;;12.45;7.88;;;;;;;13.61;67.00;99533.97;5052330;28;20483;-85
2022/03/11 01:50:42;;;;;;;11.90;7.38;;;;;;;13.83;66.32;99530.94;5052250;28;20137;-85
2022/03/11 01:53:08;;;;;;;10.50;7.38;;;;;;;13.81;66.67;99524.97;5052670;28;20024;-85
2022/03/11 01:55:35;;;;;;;12.50;7.30;;;;;;;13.81;66.30;99519.69;5051183;28;20112;-85
2022/03/11 01:58:01;;;;;;;10.60;8.10;;;;;;;13.75;66.14;99515.00;5052615;28;20464;-85
2022/03/11 02:00:26;;;;;;;12.65;7.07;;;;;;;13.54;66.80;99525.78;5051458;28;20052;-85
2022/03/11 02:02:52;;;;;;;9.73;6.63;;;;;;;13.71;66.15;99513.66;5054141;28;20013;-85
2022/03/11 02:05:17;;;;;;;12.40;7.45;;;;;;;13.72;66.26;99514.47;5051575;28;20179;-85
2022/03/11 02:07:43;;;;;;;10.18;7.07;;;;;;;13.98;65.02;99498.75;5051017;28;20063;-85
2022/03/11 02:10:09;;;;;;;12.98;6.50;;;;;;;13.73;65.34;99505.59;5052130;28;20406;-84
2022/03/11 02:12:35;;;;;;;9.95;6.43;;;;;;;13.75;65.48;99490.44;5052553;28;20017;-85
2022/03/11 02:15:04;;;;;;;9.45;6.00;;;;;;;13.68;65.08;99482.25;5051562;28;20017;-85
2022/03/11 02:17:29;;;;;;;11.48;6.35;;;;;;;13.77;64.97;99480.56;5052049;28;20475;-85
2022/03/11 02:19:55;;;;;;;9.88;6.78;;;;;;;13.60;65.08;99476.91;5051664;28;20109;-85
2022/03/11 02:22:23;;;;;;;10.32;6.10;;;;;;;13.67;64.61;99476.16;5050776;28;20387;-85
2022/03/11 02:24:48;;;;;;;11.65;5.78;;;;;;;13.79;64.55;99460.16;5051305;28;20037;-85
2022/03/11 02:27:14;;;;;;;10.45;6.50;;;;;;;13.79;64.68;99471.53;5051664;28;20029;-85
2022/03/11 02:29:39;;;;;;;9.30;6.28;;;;;;;13.79;64.18;99462.78;5051909;28;20051;-84
2022/03/11 02:32:05;;;;;;;9.02;5.65;;;;;;;13.86;64.52;99455.91;5051912;28;20021;-85
2022/03/11 02:34:31;;;;;;;8.93;5.72;;;;;;;13.91;63.94;99444.94;5051488;28;20036;-84
2022/03/11 02:36:57;;;;;;;11.52;5.78;;;;;;;13.71;64.59;99444.22;5051677;28;20387;-85
2022/03/11 02:39:22;;;;;;;11.77;6.50;;;;;;;13.87;64.20;99445.22;5051902;28;20028;-85
2022/03/11 02:41:49;;;;;;;8.45;5.90;;;;;;;14.01;63.93;99440.41;5051925;28;20029;-85
2022/03/11 02:44:15;;;;;;;8.32;5.80;;;;;;;13.98;64.07;99435.41;5051783;28;20025;-84
2022/03/11 02:46:40;;;;;;;9.82;6.50;;;;;;;13.87;64.76;99434.66;5051521;28;20032;-85
2022/03/11 02:49:06;;;;;;;11.93;7.25;;;;;;;14.05;64.45;99425.94;5051283;28;20055;-85
2022/03/11 02:51:31;;;;;;;9.30;6.80;;;;;;;14.00;63.95;99423.75;5051626;28;20030;-85
2022/03/11 02:53:56;;;;;;;12.90;6.40;;;;;;;14.04;63.45;99418.97;5051841;28;20025;-84
2022/03/11 02:56:23;;;;;;;11.65;7.05;;;;;;;13.61;64.55;99423.19;5051742;28;20040;-84
2022/03/11 02:58:48;;;;;;;9.30;6.25;;;;;;;13.83;63.79;99417.47;5051379;28;20367;-85
2022/03/11 03:01:14;;;;;;;14.15;7.45;;;;;;;13.73;64.18;99400.88;5050037;28;20028;-85
2022/03/11 03:03:39;;;;;;;12.13;7.20;;;;;;;13.74;64.00;99402.53;5051168;28;20029;-85
2022/03/11 03:06:05;;;;;;;10.57;6.45;;;;;;;13.73;64.12;99400.06;5051279;28;20021;-85
2022/03/11 03:08:32;;;;;;;13.18;6.82;;;;;;;13.56;64.40;99397.22;5051689;28;20142;-85
2022/03/11 03:10:57;;;;;;;9.90;6.00;;;;;;;13.43;64.66;99388.88;5050288;28;20025;-84
2022/03/11 03:13:24;;;;;;;9.88;6.38;;;;;;;13.91;63.20;99392.16;5051328;28;20049;-85
2022/03/11 03:15:49;;;;;;;10.48;6.80;;;;;;;13.65;63.78;99377.88;5050445;28;20158;-85
2022/03/11 03:18:15;;;;;;;14.45;6.75;;;;;;;13.41;64.84;99381.09;5051021;28;20021;-85
2022/03/11 03:20:40;;;;;;;13.15;7.40;;;;;;;13.59;64.36;99377.66;5051587;28;20087;-84
2022/03/11 03:23:06;;;;;;;17.65;7.55;;;;;;;13.45;64.82;99379.81;5051458;28;20021;-85
2022/03/11 03:25:31;;;;;;;10.98;6.53;;;;;;;13.66;64.56;99373.44;5051773;28;20029;-84
2022/03/11 03:27:56;;;;;;;9.77;6.60;;;;;;;13.44;64.27;99364.97;5053948;28;20127;-84
2022/03/11 03:30:22;;;;;;;8.90;6.10;;;;;;;13.64;63.62;99363.03;5055054;28;20059;-85
2022/03/11 03:32:47;;;;;;;14.35;6.25;;;;;;;13.60;63.78;99363.50;5054675;28;20028;-85
2022/03/11 03:35:13;;;;;;;10.85;5.85;;;;;;;13.53;63.83;99362.44;5054837;28;20024;-85
2022/03/11 03:37:39;;;;;;;10.77;6.05;;;;;;;13.65;63.22;99369.97;5054704;28;20375;-85
2022/03/11 03:40:06;;;;;;;9.20;5.75;;;;;;;13.71;63.34;99368.56;5054970;28;20056;-85
2022/03/11 03:42:32;;;;;;;8.55;5.35;;;;;;;13.53;63.50;99365.09;5054886;28;20024;-85
2022/03/11 03:44:57;;;;;;;9.85;5.28;;;;;;;13.25;63.71;99362.41;5054801;28;20055;-85
2022/03/11 03:47:23;;;;;;;11.90;6.07;;;;;;;12.96;63.95;99367.84;5054747;28;20091;-85
2022/03/11 03:49:48;;;;;;;8.35;4.85;;;;;;;13.33;63.28;99357.28;5054375;28;20498;-85
2022/03/11 03:52:13;;;;;;;11.75;5.88;;;;;;;13.62;62.29;99351.81;5053748;28;20475;-85
2022/03/11 03:54:40;;;;;;;10.20;5.75;;;;;;;13.54;62.50;99358.81;5054511;28;20407;-85
2022/03/11 03:57:07;;;;;;;9.40;5.32;;;;;;;13.36;62.88;99341.16;5054761;28;20101;-85
2022/03/11 03:59:32;;;;;;;12.00;5.65;;;;;;;13.39;63.02;99338.22;5054404;28;20029;-85
2022/03/11 04:01:58;;;;;;;8.77;5.28;;;;;;;13.27;62.93;99334.13;5054689;28;20048;-85
2022/03/11 04:04:23;;;;;;;7.00;4.53;;;;;;;13.11;62.32;99329.47;5054754;28;20490;-85
2022/03/11 04:06:49;;;;;;;8.80;5.10;;;;;;;13.34;61.44;99322.00;5054680;28;20563;-85
2022/03/11 04:09:14;;;;;;;7.47;5.10;;;;;;;13.17;62.03;99310.44;5054092;28;20570;-85
2022/03/11 04:11:40;;;;;;;7.28;3.90;;;;;;;13.10;62.05;99306.72;5070235;28;20028;-85
2022/03/11 04:14:07;;;;;;;11.05;4.47;;;;;;;12.61;62.98;99304.31;5054359;28;20032;-84
2022/03/11 04:16:33;;;;;;;7.18;4.07;;;;;;;13.04;62.29;99305.50;5054403;28;20449;-85
2022/03/11 04:18:59;;;;;;;6.88;4.28;;;;;;;13.33;61.12;99307.19;5054514;28;20037;-85
2022/03/11 04:21:25;;;;;;;7.22;3.95;;;;;;;12.89;62.31;99299.06;5054673;28;20067;-85
2022/03/11 04:23:51;;;;;;;7.63;4.20;;;;;;;13.22;61.54;99305.53;5054285;28;20029;-86
2022/03/11 04:26:17;;;;;;;8.50;4.47;;;;;;;13.14;61.83;99310.72;5053890;28;20025;-85
2022/03/11 04:28:42;;;;;;;12.15;5.85;;;;;;;13.00;62.50;99309.41;5054343;28;20048;-85
2022/03/11 04:31:10;;;;;;;11.35;4.53;;;;;;;12.94;62.76;99294.19;5054505;28;20116;-86
2022/03/11 04:33:36;;;;;;;10.93;4.90;;;;;;;12.85;62.75;99300.34;5053882;28;20094;-85
2022/03/11 04:36:03;;;;;;;9.63;4.53;;;;;;;12.96;62.51;99292.25;5053856;28;20025;-85
2022/03/11 04:38:29;;;;;;;9.55;4.35;;;;;;;13.05;62.06;99285.25;5052864;28;20041;-85
2022/03/11 04:40:55;;;;;;;10.57;4.68;;;;;;;13.18;61.98;99285.75;5054146;28;20371;-85
2022/03/11 04:43:21;;;;;;;10.68;5.05;;;;;;;13.05;62.68;99286.09;5053864;28;20092;-86
2022/03/11 04:45:46;;;;;;;8.90;5.05;;;;;;;13.25;62.04;99285.97;5053758;28;20031;-85
2022/03/11 04:48:12;;;;;;;8.18;4.43;;;;;;;13.06;62.49;99290.38;5053888;28;20528;-85
2022/03/11 04:50:38;;;;;;;9.38;5.57;;;;;;;13.31;61.99;99269.59;5053816;28;20029;-84
2022/03/11 04:53:03;;;;;;;8.30;4.93;;;;;;;13.33;61.56;99267.66;5053349;28;20082;-85
2022/03/11 04:55:29;;;;;;;6.82;4.15;;;;;;;13.15;62.25;99259.69;5053510;28;20020;-85
2022/03/11 04:57:55;;;;;;;12.50;6.13;;;;;;;13.08;62.74;99238.34;5053348;28;20108;-85
2022/03/11 05:00:20;;;;;;;9.65;4.70;;;;;;;13.29;61.88;99247.81;5053517;28;20021;-85
2022/03/11 05:02:46;;;;;;;8.80;4.70;;;;;;;12.82;62.88;99243.50;5053549;28;20450;-85
2022/03/11 05:05:15;;;;;;;9.35;5.05;;;;;;;13.08;62.37;99238.34;5053690;28;20028;-86
2022/03/11 05:07:41;;;;;;;10.35;5.07;;;;;;;13.12;62.10;99233.63;5053323;28;20017;-85
2022/03/11 05:10:09;;;;;;;8.35;4.68;;;;;;;13.05;62.54;99228.13;5053436;28;20040;-85
2022/03/11 05:12:35;;;;;;;7.72;3.88;;;;;;;13.15;62.27;99227.22;5053179;28;20029;-85
2022/03/11 05:15:02;;;;;;;10.63;5.07;;;;;;;12.90;62.81;99213.81;5053310;28;20036;-85
2022/03/11 05:17:27;;;;;;;10.23;5.25;;;;;;;12.80;63.11;99203.31;5053419;28;20029;-85
2022/03/11 05:19:53;;;;;;;15.07;5.75;;;;;;;12.87;62.90;99219.34;5053048;28;20493;-85
2022/03/11 05:22:18;;;;;;;8.13;4.28;;;;;;;12.91;62.52;99199.63;5052917;28;20078;-85
2022/03/11 05:24:44;;;;;;;11.20;5.07;;;;;;;12.72;63.36;99199.75;5053173;28;20474;-85
2022/03/11 05:27:09;;;;;;;11.68;6.90;;;;;;;12.63;63.55;99180.41;5053322;28;20021;-85
2022/03/11 05:29:35;;;;;;;9.80;4.78;;;;;;;12.65;63.78;99179.28;5053660;28;20032;-85
2022/03/11 05:32:01;;;;;;;9.57;4.82;;;;;;;12.73;63.66;99175.09;5052970;28;20387;-86
2022/03/11 05:34:27;;;;;;;8.80;4.72;;;;;;;12.57;64.18;99176.56;5052782;28;20083;-85
2022/03/11 05:36:53;;;;;;;9.98;4.95;;;;;;;12.48;64.92;99172.19;5052639;28;20483;-84
2022/03/11 05:39:18;;;;;;;10.35;4.80;;;;;;;12.38;64.84;99166.13;5052391;28;20372;-85
2022/03/11 05:41:47;;;;;;;12.30;5.38;;;;;;;12.25;65.54;99171.75;5052571;28;20494;-85
2022/03/11 05:44:16;;;;;;;6.55;4.40;;;;;;;12.39;65.34;99167.78;5052840;28;20021;-85
2022/03/11 05:46:41;;;;;;;8.90;4.57;;;;;;;12.48;64.79;99174.81;5052608;28;20029;-85
2022/03/11 05:49:07;;;;;;;8.52;5.03;;;;;;;12.53;64.87;99169.94;5052221;28;20471;-85
2022/03/11 05:51:32;;;;;;;7.45;5.30;;;;;;;12.55;64.96;99160.06;5052430;28;20025;-85
2022/03/11 05:53:57;;;;;;;7.30;5.03;;;;;;;12.58;64.33;99146.63;5052008;28;20029;-85
2022/03/11 05:56:23;;;;;;;6.40;4.68;;;;;;;12.60;64.49;99144.69;5052495;28;20116;-85
2022/03/11 05:58:51;;;;;;;10.35;4.70;;;;;;;12.29;65.45;99138.88;5052080;28;20029;-85
2022/03/11 06:01:17;;;;;;;12.82;5.40;;;;;;;12.47;65.41;99149.47;5051947;28;20021;-85
2022/03/11 06:03:42;;;;;;;12.77;5.43;;;;;;;12.51;65.23;99148.19;5052532;28;20368;-85
2022/03/11 06:06:08;;;;;;;11.52;5.32;;;;;;;12.52;65.25;99156.91;5052265;28;20073;-85
2022/03/11 06:08:33;;;;;;;12.98;5.68;;;;;;;12.51;64.99;99161.34;5051827;28;20033;-85
2022/03/11 06:10:58;;;;;;;11.40;5.70;;;;;;;12.40;65.81;99164.19;5052397;28;20375;-84
2022/03/11 06:13:24;;;;;;;12.55;5.55;;;;;;;12.42;65.76;99167.50;5052094;28;20025;-85
2022/03/11 06:15:49;;;;;;;11.40;5.32;;;;;;;12.63;65.13;99156.72;5052280;28;20098;-85
2022/03/11 06:18:18;;;;;;;11.77;5.43;;;;;;;12.62;65.25;99163.78;5052103;28;20025;-84
2022/03/11 06:20:44;;;;;;;10.23;5.60;;;;;;;12.53;65.53;99154.13;5051963;28;20031;-86
2022/03/11 06:23:09;;;;;;;11.30;5.22;;;;;;;12.77;65.06;99152.75;5051522;28;20418;-85
2022/03/11 06:25:34;;;;;;;10.75;5.57;;;;;;;12.50;65.84;99151.81;5051734;28;20025;-85
2022/03/11 06:28:00;;;;;;;10.10;5.35;;;;;;;12.45;66.10;99154.03;5051975;28;20021;-85
2022/03/11 06:30:25;;;;;;;14.25;6.45;;;;;;;12.63;65.50;99144.38;5051597;28;20031;-85
2022/03/11 06:32:51;;;;;;;10.52;6.65;;;;;;;12.75;65.37;99141.53;5051714;28;20033;-86
2022/03/11 06:35:17;;;;;;;9.43;4.95;;;;;;;12.89;64.79;99141.84;5051640;28;20025;-86
2022/03/11 06:37:44;;;;;;;14.32;5.82;;;;;;;12.94;64.71;99136.13;5051195;28;20051;-86
2022/03/11 06:40:11;;;;;;;8.65;5.72;;;;;;;13.04;64.35;99131.59;5051754;28;20033;-85
2022/03/11 06:42:38;;;;;;;8.93;6.15;;;;;;;12.94;64.52;99124.75;5051741;28;20451;-85
2022/03/11 06:45:05;;;;;;;9.32;5.70;;;;;;;12.93;64.62;99123.09;5051664;28;20029;-86
2022/03/11 06:47:30;;;;;;;18.55;6.05;;;;;;;12.81;65.13;99119.84;5051674;28;20029;-85
2022/03/11 06:49:56;;;;;;;7.75;5.32;;;;;;;12.88;65.06;99124.38;5050309;28;20021;-86
2022/03/11 06:52:21;;;;;;;9.27;5.15;;;;;;;12.99;64.78;99117.22;5051252;28;20555;-86
2022/03/11 06:54:47;;;;;;;14.38;5.50;;;;;;;13.08;64.29;99117.13;5051999;28;20112;-85
2022/03/11 06:57:12;;;;;;;9.15;5.63;;;;;;;12.88;64.77;99111.19;5051569;28;20106;-86
2022/03/11 06:59:38;;;;;;;6.63;5.25;;;;;;;13.05;64.44;99119.25;5049983;28;20487;-85
2022/03/11 07:02:03;;;;;;;10.45;5.38;;;;;;;12.96;64.69;99102.53;5056360;28;20108;-85
2022/03/11 07:04:28;;;;;;;10.05;6.07;;;;;;;12.80;65.06;99108.50;5055430;28;20382;-85
2022/03/11 07:06:54;;;;;;;9.88;5.78;;;;;;;12.96;64.70;99102.53;5054963;28;20025;-85
2022/03/11 07:09:19;;;;;;;8.82;5.60;;;;;;;12.92;64.84;99093.28;5054993;28;20036;-84
2022/03/11 07:11:46;;;;;;;10.27;6.43;;;;;;;12.68;65.62;99100.00;5065886;28;20051;-85
2022/03/11 07:14:12;;;;;;;12.90;5.70;;;;;;;12.89;64.98;99104.13;5073943;28;20081;-85
2022/03/11 07:16:38;;;;;;;10.73;5.93;;;;;;;12.95;65.36;99087.72;5074529;28;20474;-86
2022/03/11 07:19:03;;;;;;;11.20;6.50;;;;;;;12.97;65.43;99091.00;5074880;28;20409;-84
2022/03/11 07:21:29;;;;;;;9.23;6.18;;;;;;;13.16;64.79;99081.31;5074234;28;20048;-84
2022/03/11 07:23:56;;;;;;;10.30;5.95;;;;;;;13.04;65.75;99071.00;5053827;28;20417;-84
2022/03/11 07:26:22;;;;;;;11.60;6.90;;;;;;;12.95;65.62;99066.63;5053788;28;20017;-84
2022/03/11 07:28:47;;;;;;;11.65;5.85;;;;;;;12.83;66.34;99078.38;5054660;28;20052;-84
2022/03/11 07:31:13;;;;;;;12.75;6.15;;;;;;;12.99;65.90;99070.63;5054084;28;20098;-85
2022/03/11 07:33:38;;;;;;;13.57;6.28;;;;;;;12.95;65.73;99069.25;5052952;28;20116;-85
2022/03/11 07:36:04;;;;;;;12.68;6.50;;;;;;;13.06;65.66;99063.75;5053545;28;20032;-84
2022/03/11 07:38:32;;;;;;;12.95;6.45;;;;;;;12.78;66.35;99054.31;5054334;28;20059;-85
2022/03/11 07:40:59;;;;;;;9.40;6.53;;;;;;;13.00;66.18;99051.19;5052676;28;20025;-84
2022/03/11 07:43:25;;;;;;;12.73;6.28;;;;;;;12.91;66.48;99049.47;5051083;28;20035;-86
2022/03/11 07:45:51;;;;;;;10.70;6.75;;;;;;;13.03;65.92;99050.06;5052402;28;20036;-86
2022/03/11 07:48:18;;;;;;;14.07;6.85;;;;;;;13.17;65.84;99038.13;5049528;28;20035;-85
2022/03/11 07:50:44;;;;;;;10.68;6.22;;;;;;;13.42;65.07;99039.97;5049474;28;20059;-85
2022/03/11 07:53:09;;;;;;;13.95;6.28;;;;;;;13.23;65.72;99034.88;5049499;28;20491;-84
2022/03/11 07:55:35;;;;;;;13.20;6.70;;;;;;;13.27;65.56;99052.06;5050000;28;20021;-85
2022/03/11 07:58:00;;;;;;;8.82;5.68;;;;;;;13.38;65.31;99028.09;5050290;28;20040;-85
2022/03/11 08:00:26;;;;;;;16.23;6.78;;;;;;;13.36;65.74;99030.06;5047631;28;20024;-85
2022/03/11 08:02:51;;;;;;;12.38;6.95;;;;;;;13.52;65.31;99033.78;5048676;28;20427;-85
2022/03/11 08:05:17;;;;;;;12.35;6.55;;;;;;;13.35;65.83;99028.41;5047907;28;20032;-84
2022/03/11 08:07:48;;;;;;;14.38;7.55;;;;;;;13.43;65.85;99015.28;5048183;28;20071;-85
2022/03/11 08:10:13;;;;;;;15.70;6.78;;;;;;;13.41;65.82;99019.06;5044026;28;20119;-84
2022/03/11 08:12:38;;;;;;;17.02;7.43;;;;;;;13.25;66.11;99028.50;5047874;28;20159;-83
2022/03/11 08:15:04;;;;;;;14.20;7.00;;;;;;;13.34;66.38;99023.31;5047851;28;20391;-85
2022/03/11 08:17:30;;;;;;;12.25;6.75;;;;;;;13.26;67.49;99011.69;5046414;28;20032;-85
2022/03/11 08:19:55;;;;;;;13.88;6.60;;;;;;;13.25;67.19;99014.47;5048185;28;20029;-85
2022/03/11 08:22:20;;;;;;;16.70;8.73;;;;;;;13.12;68.77;99017.53;5050379;28;20486;-85
2022/03/11 08:24:46;;;;;;;14.70;7.28;;;;;;;13.20;68.96;99017.56;5048442;28;20643;-85
2022/03/11 08:27:11;;;;;;;12.65;7.90;;;;;;;13.36;68.77;99019.50;5045058;28;20099;-85
2022/03/11 08:29:37;;;;;;;11.70;6.93;;;;;;;13.18;69.33;99031.91;5048495;28;20158;-86
2022/03/11 08:32:03;;;;;;;14.90;7.32;;;;;;;13.27;69.32;99020.44;5056410;28;20830;-85
2022/03/11 08:34:30;;;;;;;15.85;8.10;;;;;;;13.16;70.31;99021.50;5044929;28;20037;-85
2022/03/11 08:36:55;;;;;;;12.60;7.65;;;;;;;13.00;70.81;99034.56;5048833;28;20035;-83
2022/03/11 08:39:20;;;;;;;14.48;8.80;;;;;;;13.31;69.84;99031.50;5049683;28;20029;-84
2022/03/11 08:41:46;;;;;;;15.95;7.70;;;;;;;13.09;70.82;99008.13;5049099;28;20033;-84
2022/03/11 08:44:12;;;;;;;12.25;7.93;;;;;;;13.26;70.36;99010.88;5047515;28;20021;-84
2022/03/11 08:46:38;;;;;;;13.20;8.57;;;;;;;13.05;70.92;99017.31;5046802;28;20028;-84
2022/03/11 08:49:04;;;;;;;10.25;7.28;;;;;;;13.24;70.19;99000.47;5047367;28;20043;-85
2022/03/11 08:51:29;;;;;;;17.13;8.10;;;;;;;13.55;69.48;98999.19;5047845;28;20032;-85
2022/03/11 08:53:54;;;;;;;11.95;7.47;;;;;;;13.37;69.75;98988.69;5047637;28;20036;-85
2022/03/11 08:56:22;;;;;;;15.23;7.55;;;;;;;13.69;69.86;98982.75;5047358;28;20033;-84
2022/03/11 08:58:49;;;;;;;12.18;7.45;;;;;;;13.48;70.11;98965.53;5046846;28;20408;-85
2022/03/11 09:01:14;;;;;;;11.85;7.32;;;;;;;13.46;70.19;98966.66;5046300;28;20531;-87
2022/03/11 09:03:39;;;;;;;12.00;6.97;;;;;;;13.74;69.32;98963.81;5047497;28;20112;-85
2022/03/11 09:06:05;;;;;;;12.38;6.57;;;;;;;13.64;69.67;98963.94;5047240;28;20115;-84
2022/03/11 09:08:30;;;;;;;12.25;6.65;;;;;;;13.73;69.42;98952.44;5045915;28;20032;-86
2022/03/11 09:10:56;;;;;;;14.63;6.55;;;;;;;13.20;70.75;98961.41;5047060;28;20486;-85
2022/03/11 09:13:21;;;;;;;11.68;6.65;;;;;;;13.14;71.04;98960.22;5048746;28;20033;-86
2022/03/11 09:15:46;;;;;;;11.05;7.20;;;;;;;12.74;72.48;98956.34;5048584;28;20074;-86
2022/03/11 09:18:12;;;;;;;10.02;6.28;;;;;;;12.99;71.84;98944.16;5048267;28;20068;-86
2022/03/11 09:20:38;;;;;;;14.02;6.53;;;;;;;13.19;71.49;98950.06;5048487;28;20033;-86
2022/03/11 09:23:04;;;;;;;12.77;7.28;;;;;;;13.04;72.10;98941.06;5048281;28;20027;-86
2022/03/11 09:25:30;;;;;;;10.20;6.63;;;;;;;13.57;70.38;98934.75;5047967;28;20028;-86
2022/03/11 09:27:55;;;;;;;8.48;5.75;;;;;;;13.28;70.97;98919.28;5048694;28;20048;-86
2022/03/11 09:30:21;;;;;;;11.70;6.30;;;;;;;13.62;70.77;98907.88;5047753;28;20032;-86
2022/03/11 09:32:46;;;;;;;11.15;6.43;;;;;;;13.34;71.05;98918.66;5048199;28;20033;-86
2022/03/11 09:35:12;;;;;;;10.02;5.93;;;;;;;13.53;70.81;98901.78;5048207;28;20121;-86
2022/03/11 09:37:38;;;;;;;11.93;6.00;;;;;;;13.47;71.17;98895.31;5048364;28;20032;-86
2022/03/11 09:40:04;;;;;;;8.45;5.43;;;;;;;13.24;71.68;98900.31;5047942;28;20037;-86
2022/03/11 09:42:30;;;;;;;11.20;5.70;;;;;;;13.27;71.69;98905.28;5054950;28;20564;-87
2022/03/11 09:44:56;;;;;;;8.20;5.70;;;;;;;13.49;71.09;98885.44;5047018;28;20028;-86
2022/03/11 09:47:22;;;;;;;13.52;6.13;;;;;;;13.16;71.99;98891.56;5047826;28;20158;-86
2022/03/11 09:49:49;;;;;;;9.60;6.22;;;;;;;13.29;71.63;98873.50;5046953;28;20041;-86
2022/03/11 09:52:15;;;;;;;7.25;5.10;;;;;;;13.55;70.63;98869.97;5048069;28;20483;-86
2022/03/11 09:54:41;;;;;;;11.23;5.38;;;;;;;13.56;70.95;98879.53;5040860;28;20575;-85
2022/03/11 09:57:07;;;;;;;7.07;4.85;;;;;;;13.52;71.03;98870.28;5046781;28;20039;-85
2022/03/11 09:59:34;;;;;;;8.15;4.72;;;;;;;13.09;72.94;98880.81;5046835;28;20082;-85
2022/03/11 10:02:00;;;;;;;9.68;5.50;;;;;;;13.10;72.75;98877.19;5047031;28;20040;-85
2022/03/11 10:04:25;;;;;;;9.70;5.28;;;;;;;13.09;73.09;98872.91;5048150;28;20037;-84
2022/03/11 10:06:54;;;;;;;8.80;4.60;;;;;;;13.10;72.66;98875.38;5047883;28;20029;-84
2022/03/11 10:09:19;;;;;;;8.18;5.05;;;;;;;13.24;72.72;98873.13;5046418;28;20086;-84
2022/03/11 10:11:49;;;;;;;8.57;4.60;;;;;;;13.05;73.03;98869.78;5058024;28;20028;-84
2022/03/11 10:14:16;;;;;;;6.70;4.35;;;;;;;13.29;73.02;98862.94;5047404;28;20510;-83
2022/03/11 10:16:44;;;;;;;8.38;4.38;;;;;;;13.22;73.64;98854.03;5046340;28;20059;-83
2022/03/11 10:19:13;;;;;;;9.80;5.90;;;;;;;12.88;74.47;98862.78;5045339;28;20079;-84
2022/03/11 10:21:41;;;;;;;8.45;4.65;;;;;;;13.27;73.95;98852.56;5051504;28;20024;-83
2022/03/11 10:24:10;;;;;;;8.57;4.68;;;;;;;13.08;74.74;98843.09;5051580;28;20683;-84
2022/03/11 10:26:40;;;;;;;6.28;3.70;;;;;;;13.25;74.14;98857.16;5051326;28;20147;-83
2022/03/11 10:29:08;;;;;;;8.27;4.88;;;;;;;13.24;74.39;98852.06;5049666;28;20057;-84
2022/03/11 10:31:36;;;;;;;6.32;3.95;;;;;;;13.44;73.76;98848.19;5050859;28;20037;-84
2022/03/11 10:34:23;;;;;;;7.25;4.13;;;;;;;13.42;73.52;98834.34;5050798;28;20025;-84
2022/03/11 10:37:12;;;;;;;6.20;4.25;;;;;;;13.40;74.23;98838.94;5047661;28;20051;-85
2022/03/11 10:39:40;;;;;;;9.73;4.40;;;;;;;13.40;74.52;98840.75;5050946;28;20097;-84
2022/03/11 10:42:16;;;;;;;5.80;3.92;;;;;;;13.67;73.13;98844.94;5051303;28;20478;-83
2022/03/11 10:44:59;;;;;;;12.48;4.15;;;;;;;13.42;74.36;98841.44;5049735;28;20033;-84
2022/03/11 10:47:33;;;;;;;9.27;4.65;;;;;;;13.24;74.98;98841.50;5051074;28;20039;-84
2022/03/11 10:50:06;;;;;;;11.98;4.85;;;;;;;13.24;75.25;98846.78;5046747;28;20029;-84
2022/03/11 10:52:42;;;;;;;7.18;4.45;;;;;;;13.34;75.05;98844.84;5042750;28;20029;-84
2022/03/11 10:55:26;;;;;;;10.30;5.00;;;;;;;13.16;75.82;98844.94;5050462;28;20029;-84
2022/03/11 10:57:59;;;;;;;8.13;4.47;;;;;;;13.27;75.44;98836.75;5051322;28;20386;-84
2022/03/11 11:00:27;;;;;;;8.90;4.63;;;;;;;13.24;75.70;98839.69;5049887;28;20052;-84
2022/03/11 11:02:57;;;;;;;8.15;4.78;;;;;;;13.29;75.66;98833.97;5051122;28;20032;-84
2022/03/11 11:05:26;;;;;;;14.68;5.03;;;;;;;13.28;75.13;98832.28;5051199;28;20099;-84
2022/03/11 11:07:52;;;;;;;8.48;4.70;;;;;;;13.07;76.05;98833.56;5050582;28;20356;-85
2022/03/11 11:10:20;;;;;;;7.90;4.78;;;;;;;12.79;78.25;98847.91;5050550;28;20495;-85
2022/03/11 11:12:46;;;;;;;9.93;5.60;;;;;;;12.73;78.72;98844.06;5050851;28;20039;-84
2022/03/11 11:15:13;;;;;;;11.15;5.50;;;;;;;13.08;77.19;98843.09;5050671;28;20036;-85
2022/03/11 11:17:40;;;;;;;11.00;5.85;;;;;;;12.90;77.54;98831.81;5049508;28;20035;-85
2022/03/11 11:20:50;;;;;;;10.88;5.65;;;;;;;12.85;77.98;98829.63;5049911;28;20072;-86
2022/03/11 11:23:16;;;;;;;11.43;5.40;;;;;;;13.02;77.23;98829.72;5049576;28;20510;-86